sensor_id;sensor_type;location;lat;lon;timestamp;P1;durP1;ratioP1;P2;durP2;ratioP2
78824;SDS011;68176;45.554;10.220;2023-10-08T04:11:12;8.13;;;6.23;;
78824;SDS011;68176;45.554;10.220;2023-10-08T04:13:57;8.77;;;6.50;;
78824;SDS011;68176;45.554;10.220;2023-10-08T04:16:26;7.50;;;6.60;;
78824;SDS011;68176;45.554;10.220;2023-10-08T04:18:53;4.50;;;3.70;;
78824;SDS011;68176;45.554;10.220;2023-10-08T04:21:21;7.70;;;6.90;;
78824;SDS011;68176;45.554;10.220;2023-10-08T04:26:21;9.13;;;7.18;;
78824;SDS011;68176;45.554;10.220;2023-10-08T04:28:52;8.50;;;7.20;;
78824;SDS011;68176;45.554;10.220;2023-10-08T04:31:24;8.00;;;6.95;;
78824;SDS011;68176;45.554;10.220;2023-10-08T04:33:53;4.00;;;3.60;;
78824;SDS011;68176;45.554;10.220;2023-10-08T04:36:21;8.38;;;6.65;;
78824;SDS011;68176;45.554;10.220;2023-10-08T04:38:51;9.70;;;6.80;;
78824;SDS011;68176;45.554;10.220;2023-10-08T04:41:21;7.72;;;6.78;;
78824;SDS011;68176;45.554;10.220;2023-10-08T04:43:52;3.40;;;3.10;;
78824;SDS011;68176;45.554;10.220;2023-10-08T04:46:22;8.85;;;7.50;;
78824;SDS011;68176;45.554;10.220;2023-10-08T04:49:11;8.38;;;7.07;;
78824;SDS011;68176;45.554;10.220;2023-10-08T04:51:56;9.63;;;6.85;;
78824;SDS011;68176;45.554;10.220;2023-10-08T04:54:26;7.10;;;5.80;;
78824;SDS011;68176;45.554;10.220;2023-10-08T04:57:01;6.60;;;5.88;;
78824;SDS011;68176;45.554;10.220;2023-10-08T04:59:29;7.93;;;5.70;;
78824;SDS011;68176;45.554;10.220;2023-10-08T05:02:02;8.10;;;7.20;;
78824;SDS011;68176;45.554;10.220;2023-10-08T05:04:38;7.40;;;6.43;;
78824;SDS011;68176;45.554;10.220;2023-10-08T05:07:16;7.63;;;6.30;;
78824;SDS011;68176;45.554;10.220;2023-10-08T05:09:46;7.00;;;5.60;;
78824;SDS011;68176;45.554;10.220;2023-10-08T05:12:36;6.88;;;6.18;;
78824;SDS011;68176;45.554;10.220;2023-10-08T05:15:36;7.17;;;5.17;;
78824;SDS011;68176;45.554;10.220;2023-10-08T05:18:06;8.32;;;7.30;;
78824;SDS011;68176;45.554;10.220;2023-10-08T05:20:44;8.32;;;5.95;;
78824;SDS011;68176;45.554;10.220;2023-10-08T05:23:16;8.75;;;6.88;;
78824;SDS011;68176;45.554;10.220;2023-10-08T05:26:06;7.10;;;5.60;;
78824;SDS011;68176;45.554;10.220;2023-10-08T05:28:38;7.00;;;5.35;;
78824;SDS011;68176;45.554;10.220;2023-10-08T05:31:23;6.93;;;5.37;;
78824;SDS011;68176;45.554;10.220;2023-10-08T05:34:07;6.57;;;5.95;;
78824;SDS011;68176;45.554;10.220;2023-10-08T05:36:51;7.07;;;5.45;;
78824;SDS011;68176;45.554;10.220;2023-10-08T05:39:25;7.10;;;5.75;;
78824;SDS011;68176;45.554;10.220;2023-10-08T05:42:19;8.15;;;6.35;;
78824;SDS011;68176;45.554;10.220;2023-10-08T05:44:53;12.20;;;8.70;;
78824;SDS011;68176;45.554;10.220;2023-10-08T05:47:33;11.93;;;7.93;;
78824;SDS011;68176;45.554;10.220;2023-10-08T05:49:59;6.10;;;4.30;;
78824;SDS011;68176;45.554;10.220;2023-10-08T05:52:55;15.73;;;6.70;;
78824;SDS011;68176;45.554;10.220;2023-10-08T05:55:23;11.40;;;7.80;;
78824;SDS011;68176;45.554;10.220;2023-10-08T05:57:59;8.50;;;7.30;;
78824;SDS011;68176;45.554;10.220;2023-10-08T06:00:44;13.10;;;7.00;;
78824;SDS011;68176;45.554;10.220;2023-10-08T06:03:19;11.13;;;8.67;;
78824;SDS011;68176;45.554;10.220;2023-10-08T06:06:07;12.27;;;7.22;;
78824;SDS011;68176;45.554;10.220;2023-10-08T06:08:39;14.65;;;6.75;;
78824;SDS011;68176;45.554;10.220;2023-10-08T06:11:19;11.17;;;8.47;;
78824;SDS011;68176;45.554;10.220;2023-10-08T06:14:14;9.30;;;7.43;;
78824;SDS011;68176;45.554;10.220;2023-10-08T06:16:53;9.75;;;7.05;;
78824;SDS011;68176;45.554;10.220;2023-10-08T06:19:38;11.47;;;7.97;;
78824;SDS011;68176;45.554;10.220;2023-10-08T06:22:04;14.80;;;7.20;;
78824;SDS011;68176;45.554;10.220;2023-10-08T06:24:32;16.65;;;7.85;;
78824;SDS011;68176;45.554;10.220;2023-10-08T06:27:02;13.45;;;8.02;;
78824;SDS011;68176;45.554;10.220;2023-10-08T06:29:32;14.63;;;8.43;;
78824;SDS011;68176;45.554;10.220;2023-10-08T06:32:02;13.13;;;9.82;;
78824;SDS011;68176;45.554;10.220;2023-10-08T06:34:32;13.68;;;9.07;;
78824;SDS011;68176;45.554;10.220;2023-10-08T06:37:02;18.35;;;9.88;;
78824;SDS011;68176;45.554;10.220;2023-10-08T06:39:32;13.30;;;8.48;;
78824;SDS011;68176;45.554;10.220;2023-10-08T06:42:13;14.23;;;9.90;;
78824;SDS011;68176;45.554;10.220;2023-10-08T06:44:42;10.87;;;8.13;;
78824;SDS011;68176;45.554;10.220;2023-10-08T06:47:11;10.05;;;6.55;;
78824;SDS011;68176;45.554;10.220;2023-10-08T06:49:36;12.10;;;7.90;;
78824;SDS011;68176;45.554;10.220;2023-10-08T06:52:06;12.50;;;8.75;;
78824;SDS011;68176;45.554;10.220;2023-10-08T06:54:36;18.23;;;9.43;;
78824;SDS011;68176;45.554;10.220;2023-10-08T06:57:06;17.10;;;9.48;;
78824;SDS011;68176;45.554;10.220;2023-10-08T06:59:38;4.40;;;3.30;;
78824;SDS011;68176;45.554;10.220;2023-10-08T07:04:36;15.57;;;9.02;;
78824;SDS011;68176;45.554;10.220;2023-10-08T07:07:07;22.20;;;9.52;;
78824;SDS011;68176;45.554;10.220;2023-10-08T07:09:36;16.77;;;10.05;;
78824;SDS011;68176;45.554;10.220;2023-10-08T07:12:07;13.73;;;9.02;;
78824;SDS011;68176;45.554;10.220;2023-10-08T07:14:38;9.20;;;7.20;;
78824;SDS011;68176;45.554;10.220;2023-10-08T07:17:06;14.15;;;8.10;;
78824;SDS011;68176;45.554;10.220;2023-10-08T07:19:36;16.58;;;9.20;;
78824;SDS011;68176;45.554;10.220;2023-10-08T07:22:07;20.73;;;9.90;;
78824;SDS011;68176;45.554;10.220;2023-10-08T07:24:43;11.13;;;7.27;;
78824;SDS011;68176;45.554;10.220;2023-10-08T07:27:10;8.70;;;5.80;;
78824;SDS011;68176;45.554;10.220;2023-10-08T07:29:36;11.38;;;8.50;;
78824;SDS011;68176;45.554;10.220;2023-10-08T07:32:07;13.07;;;8.30;;
78824;SDS011;68176;45.554;10.220;2023-10-08T07:34:37;13.82;;;7.53;;
78824;SDS011;68176;45.554;10.220;2023-10-08T07:37:07;16.13;;;8.55;;
78824;SDS011;68176;45.554;10.220;2023-10-08T07:39:37;18.45;;;7.05;;
78824;SDS011;68176;45.554;10.220;2023-10-08T07:42:11;13.15;;;5.10;;
78824;SDS011;68176;45.554;10.220;2023-10-08T07:47:07;10.50;;;6.68;;
78824;SDS011;68176;45.554;10.220;2023-10-08T07:49:37;11.00;;;6.17;;
78824;SDS011;68176;45.554;10.220;2023-10-08T07:52:07;20.67;;;7.80;;
78824;SDS011;68176;45.554;10.220;2023-10-08T07:54:37;12.85;;;7.82;;
78824;SDS011;68176;45.554;10.220;2023-10-08T07:57:07;20.75;;;8.18;;
78824;SDS011;68176;45.554;10.220;2023-10-08T07:59:46;14.60;;;8.00;;
78824;SDS011;68176;45.554;10.220;2023-10-08T08:02:12;14.55;;;6.25;;
78824;SDS011;68176;45.554;10.220;2023-10-08T08:04:39;4.50;;;3.40;;
78824;SDS011;68176;45.554;10.220;2023-10-08T08:07:07;14.10;;;6.88;;
78824;SDS011;68176;45.554;10.220;2023-10-08T08:09:37;16.63;;;8.10;;
78824;SDS011;68176;45.554;10.220;2023-10-08T08:12:09;10.40;;;5.75;;
78824;SDS011;68176;45.554;10.220;2023-10-08T08:14:37;12.77;;;5.88;;
78824;SDS011;68176;45.554;10.220;2023-10-08T08:17:07;8.82;;;5.30;;
78824;SDS011;68176;45.554;10.220;2023-10-08T08:19:45;7.50;;;6.80;;
78824;SDS011;68176;45.554;10.220;2023-10-08T08:22:16;17.33;;;8.63;;
78824;SDS011;68176;45.554;10.220;2023-10-08T08:24:55;12.75;;;6.28;;
78824;SDS011;68176;45.554;10.220;2023-10-08T08:27:30;10.23;;;8.07;;
78824;SDS011;68176;45.554;10.220;2023-10-08T08:29:58;13.57;;;6.80;;
78824;SDS011;68176;45.554;10.220;2023-10-08T08:32:35;9.23;;;6.93;;
78824;SDS011;68176;45.554;10.220;2023-10-08T08:35:04;10.75;;;6.30;;
78824;SDS011;68176;45.554;10.220;2023-10-08T08:37:32;18.10;;;5.70;;
78824;SDS011;68176;45.554;10.220;2023-10-08T08:40:01;5.90;;;3.70;;
78824;SDS011;68176;45.554;10.220;2023-10-08T08:42:31;2.60;;;2.30;;
78824;SDS011;68176;45.554;10.220;2023-10-08T08:45:00;4.00;;;2.90;;
78824;SDS011;68176;45.554;10.220;2023-10-08T08:47:33;15.70;;;5.65;;
78824;SDS011;68176;45.554;10.220;2023-10-08T08:50:02;18.60;;;6.90;;
78824;SDS011;68176;45.554;10.220;2023-10-08T08:52:37;12.60;;;5.50;;
78824;SDS011;68176;45.554;10.220;2023-10-08T08:55:04;11.05;;;5.15;;
78824;SDS011;68176;45.554;10.220;2023-10-08T08:57:34;12.27;;;5.63;;
78824;SDS011;68176;45.554;10.220;2023-10-08T09:00:04;15.17;;;6.43;;
78824;SDS011;68176;45.554;10.220;2023-10-08T09:02:37;14.43;;;8.43;;
78824;SDS011;68176;45.554;10.220;2023-10-08T09:05:03;16.25;;;7.20;;
78824;SDS011;68176;45.554;10.220;2023-10-08T09:07:57;14.80;;;7.00;;
78824;SDS011;68176;45.554;10.220;2023-10-08T09:10:31;18.27;;;9.60;;
78824;SDS011;68176;45.554;10.220;2023-10-08T09:13:03;17.20;;;8.63;;
78824;SDS011;68176;45.554;10.220;2023-10-08T09:15:30;13.70;;;7.70;;
78824;SDS011;68176;45.554;10.220;2023-10-08T09:17:57;14.35;;;9.05;;
78824;SDS011;68176;45.554;10.220;2023-10-08T09:20:29;15.95;;;9.10;;
78824;SDS011;68176;45.554;10.220;2023-10-08T09:25:36;15.83;;;10.57;;
78824;SDS011;68176;45.554;10.220;2023-10-08T09:28:03;17.10;;;11.50;;
78824;SDS011;68176;45.554;10.220;2023-10-08T09:30:32;6.80;;;5.70;;
78824;SDS011;68176;45.554;10.220;2023-10-08T09:33:09;18.45;;;10.00;;
78824;SDS011;68176;45.554;10.220;2023-10-08T09:35:37;26.37;;;10.30;;
78824;SDS011;68176;45.554;10.220;2023-10-08T09:38:03;24.60;;;11.65;;
78824;SDS011;68176;45.554;10.220;2023-10-08T09:40:40;12.95;;;8.80;;
78824;SDS011;68176;45.554;10.220;2023-10-08T09:43:06;20.87;;;10.67;;
78824;SDS011;68176;45.554;10.220;2023-10-08T09:45:34;14.70;;;9.60;;
78824;SDS011;68176;45.554;10.220;2023-10-08T09:48:03;7.90;;;6.00;;
78824;SDS011;68176;45.554;10.220;2023-10-08T09:55:57;16.23;;;8.93;;
78824;SDS011;68176;45.554;10.220;2023-10-08T09:58:23;21.70;;;12.30;;
78824;SDS011;68176;45.554;10.220;2023-10-08T10:00:50;21.70;;;11.70;;
78824;SDS011;68176;45.554;10.220;2023-10-08T10:03:18;13.10;;;6.60;;
78824;SDS011;68176;45.554;10.220;2023-10-08T10:05:48;19.77;;;9.57;;
78824;SDS011;68176;45.554;10.220;2023-10-08T10:08:17;15.88;;;9.45;;
78824;SDS011;68176;45.554;10.220;2023-10-08T10:10:47;18.95;;;10.95;;
78824;SDS011;68176;45.554;10.220;2023-10-08T10:13:24;13.68;;;8.73;;
78824;SDS011;68176;45.554;10.220;2023-10-08T10:15:53;19.45;;;8.75;;
78824;SDS011;68176;45.554;10.220;2023-10-08T10:21:00;13.57;;;5.78;;
78824;SDS011;68176;45.554;10.220;2023-10-08T10:23:51;12.57;;;7.75;;
78824;SDS011;68176;45.554;10.220;2023-10-08T10:31:53;10.40;;;5.70;;
78824;SDS011;68176;45.554;10.220;2023-10-08T10:34:28;10.98;;;5.80;;
78824;SDS011;68176;45.554;10.220;2023-10-08T10:36:55;10.20;;;6.05;;
78824;SDS011;68176;45.554;10.220;2023-10-08T10:39:24;13.35;;;4.45;;
78824;SDS011;68176;45.554;10.220;2023-10-08T10:41:56;11.90;;;5.22;;
78824;SDS011;68176;45.554;10.220;2023-10-08T10:44:23;7.20;;;4.40;;
78824;SDS011;68176;45.554;10.220;2023-10-08T10:46:49;7.95;;;5.45;;
78824;SDS011;68176;45.554;10.220;2023-10-08T10:49:38;14.53;;;4.93;;
78824;SDS011;68176;45.554;10.220;2023-10-08T10:52:22;10.97;;;6.43;;
78824;SDS011;68176;45.554;10.220;2023-10-08T10:55:09;11.23;;;6.28;;
78824;SDS011;68176;45.554;10.220;2023-10-08T10:57:54;8.43;;;4.78;;
78824;SDS011;68176;45.554;10.220;2023-10-08T11:00:24;6.30;;;4.40;;
78824;SDS011;68176;45.554;10.220;2023-10-08T11:02:59;9.57;;;5.83;;
78824;SDS011;68176;45.554;10.220;2023-10-08T11:05:28;6.95;;;4.70;;
78824;SDS011;68176;45.554;10.220;2023-10-08T11:07:55;7.70;;;3.80;;
78824;SDS011;68176;45.554;10.220;2023-10-08T11:10:36;12.55;;;5.32;;
78824;SDS011;68176;45.554;10.220;2023-10-08T11:13:03;7.45;;;3.70;;
78824;SDS011;68176;45.554;10.220;2023-10-08T11:15:39;10.68;;;4.80;;
78824;SDS011;68176;45.554;10.220;2023-10-08T11:20:40;9.43;;;4.78;;
78824;SDS011;68176;45.554;10.220;2023-10-08T11:23:09;8.73;;;4.83;;
78824;SDS011;68176;45.554;10.220;2023-10-08T11:25:56;6.83;;;5.00;;
78824;SDS011;68176;45.554;10.220;2023-10-08T11:28:31;8.93;;;5.35;;
78824;SDS011;68176;45.554;10.220;2023-10-08T11:31:07;5.45;;;4.30;;
78824;SDS011;68176;45.554;10.220;2023-10-08T11:33:39;4.65;;;4.10;;
78824;SDS011;68176;45.554;10.220;2023-10-08T11:36:06;8.27;;;4.37;;
78824;SDS011;68176;45.554;10.220;2023-10-08T11:38:43;6.63;;;3.85;;
78824;SDS011;68176;45.554;10.220;2023-10-08T11:41:13;7.43;;;4.63;;
78824;SDS011;68176;45.554;10.220;2023-10-08T11:43:51;5.78;;;4.78;;
78824;SDS011;68176;45.554;10.220;2023-10-08T11:51:17;8.95;;;5.00;;
78824;SDS011;68176;45.554;10.220;2023-10-08T11:53:47;10.15;;;4.32;;
78824;SDS011;68176;45.554;10.220;2023-10-08T11:56:18;12.55;;;4.90;;
78824;SDS011;68176;45.554;10.220;2023-10-08T11:58:48;10.18;;;5.43;;
78824;SDS011;68176;45.554;10.220;2023-10-08T12:01:18;9.15;;;5.55;;
78824;SDS011;68176;45.554;10.220;2023-10-08T12:03:48;8.07;;;5.00;;
78824;SDS011;68176;45.554;10.220;2023-10-08T12:06:18;7.25;;;3.90;;
78824;SDS011;68176;45.554;10.220;2023-10-08T12:08:48;11.00;;;4.90;;
78824;SDS011;68176;45.554;10.220;2023-10-08T12:11:18;6.65;;;4.05;;
78824;SDS011;68176;45.554;10.220;2023-10-08T12:13:48;7.20;;;3.90;;
78824;SDS011;68176;45.554;10.220;2023-10-08T12:16:18;8.90;;;4.60;;
78824;SDS011;68176;45.554;10.220;2023-10-08T12:18:48;9.13;;;4.63;;
78824;SDS011;68176;45.554;10.220;2023-10-08T12:21:18;7.50;;;4.82;;
78824;SDS011;68176;45.554;10.220;2023-10-08T12:23:48;6.95;;;4.43;;
78824;SDS011;68176;45.554;10.220;2023-10-08T12:26:18;6.78;;;4.03;;
78824;SDS011;68176;45.554;10.220;2023-10-08T12:28:48;8.75;;;5.20;;
78824;SDS011;68176;45.554;10.220;2023-10-08T12:31:18;9.60;;;5.20;;
78824;SDS011;68176;45.554;10.220;2023-10-08T12:33:48;6.57;;;4.15;;
78824;SDS011;68176;45.554;10.220;2023-10-08T12:36:18;5.65;;;3.65;;
78824;SDS011;68176;45.554;10.220;2023-10-08T12:38:48;6.75;;;3.80;;
78824;SDS011;68176;45.554;10.220;2023-10-08T12:41:18;6.38;;;3.65;;
78824;SDS011;68176;45.554;10.220;2023-10-08T12:43:48;10.45;;;4.43;;
78824;SDS011;68176;45.554;10.220;2023-10-08T12:46:18;8.23;;;4.45;;
78824;SDS011;68176;45.554;10.220;2023-10-08T12:48:49;7.35;;;3.10;;
78824;SDS011;68176;45.554;10.220;2023-10-08T12:51:18;10.00;;;3.15;;
78824;SDS011;68176;45.554;10.220;2023-10-08T12:53:48;12.40;;;4.25;;
78824;SDS011;68176;45.554;10.220;2023-10-08T12:56:35;7.28;;;3.13;;
78824;SDS011;68176;45.554;10.220;2023-10-08T12:59:09;6.40;;;3.47;;
78824;SDS011;68176;45.554;10.220;2023-10-08T13:01:45;5.07;;;3.35;;
78824;SDS011;68176;45.554;10.220;2023-10-08T13:04:15;5.50;;;3.67;;
78824;SDS011;68176;45.554;10.220;2023-10-08T13:06:46;10.32;;;4.70;;
78824;SDS011;68176;45.554;10.220;2023-10-08T13:09:12;3.20;;;2.20;;
78824;SDS011;68176;45.554;10.220;2023-10-08T13:11:40;6.95;;;3.83;;
78824;SDS011;68176;45.554;10.220;2023-10-08T13:14:10;8.25;;;3.95;;
78824;SDS011;68176;45.554;10.220;2023-10-08T13:16:40;7.28;;;3.92;;
78824;SDS011;68176;45.554;10.220;2023-10-08T13:19:10;6.15;;;3.85;;
78824;SDS011;68176;45.554;10.220;2023-10-08T13:21:40;7.45;;;3.53;;
78824;SDS011;68176;45.554;10.220;2023-10-08T13:24:10;6.75;;;4.28;;
78824;SDS011;68176;45.554;10.220;2023-10-08T13:26:40;7.40;;;4.13;;
78824;SDS011;68176;45.554;10.220;2023-10-08T13:31:43;10.75;;;4.28;;
78824;SDS011;68176;45.554;10.220;2023-10-08T13:34:10;5.80;;;3.90;;
78824;SDS011;68176;45.554;10.220;2023-10-08T13:36:40;7.03;;;3.88;;
78824;SDS011;68176;45.554;10.220;2023-10-08T13:39:10;6.60;;;3.38;;
78824;SDS011;68176;45.554;10.220;2023-10-08T13:44:12;6.15;;;2.75;;
78824;SDS011;68176;45.554;10.220;2023-10-08T13:46:40;6.25;;;3.65;;
78824;SDS011;68176;45.554;10.220;2023-10-08T13:49:10;6.47;;;4.68;;
78824;SDS011;68176;45.554;10.220;2023-10-08T13:51:40;7.07;;;3.90;;
78824;SDS011;68176;45.554;10.220;2023-10-08T13:54:10;7.45;;;3.80;;
78824;SDS011;68176;45.554;10.220;2023-10-08T13:56:40;6.55;;;4.05;;
78824;SDS011;68176;45.554;10.220;2023-10-08T13:59:12;3.25;;;1.50;;
78824;SDS011;68176;45.554;10.220;2023-10-08T14:01:41;7.90;;;4.00;;
78824;SDS011;68176;45.554;10.220;2023-10-08T14:04:16;4.30;;;3.13;;
78824;SDS011;68176;45.554;10.220;2023-10-08T14:06:45;5.90;;;3.70;;
78824;SDS011;68176;45.554;10.220;2023-10-08T14:09:17;6.57;;;2.97;;
78824;SDS011;68176;45.554;10.220;2023-10-08T14:11:47;13.33;;;4.23;;
78824;SDS011;68176;45.554;10.220;2023-10-08T14:14:20;10.27;;;3.75;;
78824;SDS011;68176;45.554;10.220;2023-10-08T14:16:49;9.65;;;4.90;;
78824;SDS011;68176;45.554;10.220;2023-10-08T14:19:18;10.05;;;3.20;;
78824;SDS011;68176;45.554;10.220;2023-10-08T14:21:48;14.60;;;3.50;;
78824;SDS011;68176;45.554;10.220;2023-10-08T14:24:25;5.32;;;3.90;;
78824;SDS011;68176;45.554;10.220;2023-10-08T14:26:52;4.40;;;3.10;;
78824;SDS011;68176;45.554;10.220;2023-10-08T14:29:21;6.80;;;3.30;;
78824;SDS011;68176;45.554;10.220;2023-10-08T14:31:49;5.10;;;3.05;;
78824;SDS011;68176;45.554;10.220;2023-10-08T14:34:19;6.93;;;3.60;;
78824;SDS011;68176;45.554;10.220;2023-10-08T14:36:54;6.10;;;3.13;;
78824;SDS011;68176;45.554;10.220;2023-10-08T14:39:38;9.40;;;2.87;;
78824;SDS011;68176;45.554;10.220;2023-10-08T14:42:22;6.80;;;3.40;;
78824;SDS011;68176;45.554;10.220;2023-10-08T14:45:06;4.40;;;2.43;;
78824;SDS011;68176;45.554;10.220;2023-10-08T14:47:36;6.57;;;3.35;;
78824;SDS011;68176;45.554;10.220;2023-10-08T14:52:30;4.50;;;3.40;;
78824;SDS011;68176;45.554;10.220;2023-10-08T14:54:59;5.65;;;3.67;;
78824;SDS011;68176;45.554;10.220;2023-10-08T14:57:30;7.32;;;4.00;;
78824;SDS011;68176;45.554;10.220;2023-10-08T14:59:59;6.93;;;4.00;;
78824;SDS011;68176;45.554;10.220;2023-10-08T15:02:30;6.50;;;3.35;;
78824;SDS011;68176;45.554;10.220;2023-10-08T15:05:00;12.20;;;4.05;;
78824;SDS011;68176;45.554;10.220;2023-10-08T15:07:30;4.47;;;3.30;;
78824;SDS011;68176;45.554;10.220;2023-10-08T15:10:00;7.43;;;3.30;;
78824;SDS011;68176;45.554;10.220;2023-10-08T15:12:30;8.38;;;3.78;;
78824;SDS011;68176;45.554;10.220;2023-10-08T15:15:00;10.47;;;3.23;;
78824;SDS011;68176;45.554;10.220;2023-10-08T15:17:37;7.33;;;3.47;;
78824;SDS011;68176;45.554;10.220;2023-10-08T15:20:09;7.65;;;3.10;;
78824;SDS011;68176;45.554;10.220;2023-10-08T15:22:43;6.95;;;3.30;;
78824;SDS011;68176;45.554;10.220;2023-10-08T15:25:10;7.50;;;1.95;;
78824;SDS011;68176;45.554;10.220;2023-10-08T15:27:40;6.22;;;4.70;;
78824;SDS011;68176;45.554;10.220;2023-10-08T15:30:09;1.50;;;0.90;;
78824;SDS011;68176;45.554;10.220;2023-10-08T15:32:40;7.82;;;3.63;;
78824;SDS011;68176;45.554;10.220;2023-10-08T15:37:37;4.53;;;3.47;;
78824;SDS011;68176;45.554;10.220;2023-10-08T15:40:07;7.03;;;3.63;;
78824;SDS011;68176;45.554;10.220;2023-10-08T15:42:49;5.93;;;3.40;;
78824;SDS011;68176;45.554;10.220;2023-10-08T15:45:22;5.60;;;3.22;;
78824;SDS011;68176;45.554;10.220;2023-10-08T15:47:49;5.00;;;2.95;;
78824;SDS011;68176;45.554;10.220;2023-10-08T15:52:43;7.78;;;3.22;;
78824;SDS011;68176;45.554;10.220;2023-10-08T15:55:13;8.18;;;3.70;;
78824;SDS011;68176;45.554;10.220;2023-10-08T15:57:43;7.57;;;3.78;;
78824;SDS011;68176;45.554;10.220;2023-10-08T16:00:22;7.97;;;4.03;;
78824;SDS011;68176;45.554;10.220;2023-10-08T16:02:48;4.20;;;2.85;;
78824;SDS011;68176;45.554;10.220;2023-10-08T16:05:16;4.70;;;3.20;;
78824;SDS011;68176;45.554;10.220;2023-10-08T16:07:43;5.43;;;3.60;;
78824;SDS011;68176;45.554;10.220;2023-10-08T16:10:13;6.00;;;3.38;;
78824;SDS011;68176;45.554;10.220;2023-10-08T16:12:43;6.25;;;3.67;;
78824;SDS011;68176;45.554;10.220;2023-10-08T16:15:13;8.57;;;3.42;;
78824;SDS011;68176;45.554;10.220;2023-10-08T16:17:43;4.95;;;3.25;;
78824;SDS011;68176;45.554;10.220;2023-10-08T16:20:13;7.15;;;3.55;;
78824;SDS011;68176;45.554;10.220;2023-10-08T16:22:43;6.20;;;3.47;;
78824;SDS011;68176;45.554;10.220;2023-10-08T16:25:15;2.30;;;1.50;;
78824;SDS011;68176;45.554;10.220;2023-10-08T16:27:47;6.00;;;3.20;;
78824;SDS011;68176;45.554;10.220;2023-10-08T16:32:47;4.95;;;2.85;;
78824;SDS011;68176;45.554;10.220;2023-10-08T16:35:13;8.65;;;3.85;;
78824;SDS011;68176;45.554;10.220;2023-10-08T16:37:43;4.72;;;2.83;;
78824;SDS011;68176;45.554;10.220;2023-10-08T16:40:13;5.28;;;3.60;;
78824;SDS011;68176;45.554;10.220;2023-10-08T16:42:43;7.20;;;3.70;;
78824;SDS011;68176;45.554;10.220;2023-10-08T16:45:13;5.85;;;3.70;;
78824;SDS011;68176;45.554;10.220;2023-10-08T16:47:43;6.32;;;3.60;;
78824;SDS011;68176;45.554;10.220;2023-10-08T16:50:13;5.28;;;3.50;;
78824;SDS011;68176;45.554;10.220;2023-10-08T16:52:43;7.85;;;3.47;;
78824;SDS011;68176;45.554;10.220;2023-10-08T16:55:13;5.15;;;3.65;;
78824;SDS011;68176;45.554;10.220;2023-10-08T16:57:43;5.50;;;3.05;;
78824;SDS011;68176;45.554;10.220;2023-10-08T17:00:13;8.48;;;4.18;;
78824;SDS011;68176;45.554;10.220;2023-10-08T17:02:43;6.88;;;3.67;;
78824;SDS011;68176;45.554;10.220;2023-10-08T17:05:13;4.93;;;3.33;;
78824;SDS011;68176;45.554;10.220;2023-10-08T17:07:46;6.60;;;3.70;;
78824;SDS011;68176;45.554;10.220;2023-10-08T17:10:13;6.72;;;3.55;;
78824;SDS011;68176;45.554;10.220;2023-10-08T17:12:43;6.78;;;3.75;;
78824;SDS011;68176;45.554;10.220;2023-10-08T17:15:13;7.50;;;3.53;;
78824;SDS011;68176;45.554;10.220;2023-10-08T17:17:43;5.05;;;3.40;;
78824;SDS011;68176;45.554;10.220;2023-10-08T17:20:13;5.72;;;3.17;;
78824;SDS011;68176;45.554;10.220;2023-10-08T17:22:44;6.25;;;3.72;;
78824;SDS011;68176;45.554;10.220;2023-10-08T17:25:13;7.30;;;3.13;;
78824;SDS011;68176;45.554;10.220;2023-10-08T17:27:43;5.13;;;3.65;;
78824;SDS011;68176;45.554;10.220;2023-10-08T17:30:14;5.88;;;3.50;;
78824;SDS011;68176;45.554;10.220;2023-10-08T17:32:44;4.10;;;3.00;;
78824;SDS011;68176;45.554;10.220;2023-10-08T17:35:13;6.80;;;3.30;;
78824;SDS011;68176;45.554;10.220;2023-10-08T17:37:44;10.32;;;4.15;;
78824;SDS011;68176;45.554;10.220;2023-10-08T17:40:13;7.25;;;3.63;;
78824;SDS011;68176;45.554;10.220;2023-10-08T17:42:43;5.43;;;3.45;;
78824;SDS011;68176;45.554;10.220;2023-10-08T17:45:13;8.50;;;3.75;;
78824;SDS011;68176;45.554;10.220;2023-10-08T17:47:48;4.30;;;3.00;;
78824;SDS011;68176;45.554;10.220;2023-10-08T17:50:18;5.30;;;3.00;;
78824;SDS011;68176;45.554;10.220;2023-10-08T17:52:45;5.50;;;1.90;;
78824;SDS011;68176;45.554;10.220;2023-10-08T17:55:26;5.60;;;2.55;;
78824;SDS011;68176;45.554;10.220;2023-10-08T17:57:52;5.32;;;3.00;;
78824;SDS011;68176;45.554;10.220;2023-10-08T18:02:46;6.00;;;3.17;;
78824;SDS011;68176;45.554;10.220;2023-10-08T18:05:16;5.93;;;3.47;;
78824;SDS011;68176;45.554;10.220;2023-10-08T18:07:49;6.95;;;3.20;;
78824;SDS011;68176;45.554;10.220;2023-10-08T18:10:16;5.07;;;3.28;;
78824;SDS011;68176;45.554;10.220;2023-10-08T18:12:46;5.97;;;3.65;;
78824;SDS011;68176;45.554;10.220;2023-10-08T18:15:18;4.70;;;2.30;;
78824;SDS011;68176;45.554;10.220;2023-10-08T18:17:47;5.25;;;2.50;;
78824;SDS011;68176;45.554;10.220;2023-10-08T18:20:16;4.70;;;3.15;;
78824;SDS011;68176;45.554;10.220;2023-10-08T18:22:47;4.38;;;2.92;;
78824;SDS011;68176;45.554;10.220;2023-10-08T18:25:16;4.38;;;3.30;;
78824;SDS011;68176;45.554;10.220;2023-10-08T18:27:46;4.80;;;3.17;;
78824;SDS011;68176;45.554;10.220;2023-10-08T18:30:19;6.90;;;3.65;;
78824;SDS011;68176;45.554;10.220;2023-10-08T18:32:46;5.38;;;3.25;;
78824;SDS011;68176;45.554;10.220;2023-10-08T18:35:16;4.38;;;3.05;;
78824;SDS011;68176;45.554;10.220;2023-10-08T18:37:46;5.53;;;3.65;;
78824;SDS011;68176;45.554;10.220;2023-10-08T18:40:16;5.65;;;2.88;;
78824;SDS011;68176;45.554;10.220;2023-10-08T18:42:46;7.38;;;3.65;;
78824;SDS011;68176;45.554;10.220;2023-10-08T18:45:16;6.63;;;3.60;;
78824;SDS011;68176;45.554;10.220;2023-10-08T18:47:46;8.90;;;3.55;;
78824;SDS011;68176;45.554;10.220;2023-10-08T18:50:16;6.47;;;3.97;;
78824;SDS011;68176;45.554;10.220;2023-10-08T18:52:46;7.07;;;3.35;;
78824;SDS011;68176;45.554;10.220;2023-10-08T18:55:17;8.20;;;3.65;;
78824;SDS011;68176;45.554;10.220;2023-10-08T18:57:46;8.48;;;3.35;;
78824;SDS011;68176;45.554;10.220;2023-10-08T19:00:17;5.25;;;3.10;;
78824;SDS011;68176;45.554;10.220;2023-10-08T19:02:46;7.03;;;3.30;;
78824;SDS011;68176;45.554;10.220;2023-10-08T19:05:16;4.90;;;3.70;;
78824;SDS011;68176;45.554;10.220;2023-10-08T19:07:46;4.93;;;3.47;;
78824;SDS011;68176;45.554;10.220;2023-10-08T19:10:16;4.53;;;3.00;;
78824;SDS011;68176;45.554;10.220;2023-10-08T19:12:46;5.18;;;3.38;;
78824;SDS011;68176;45.554;10.220;2023-10-08T19:15:16;5.28;;;3.28;;
78824;SDS011;68176;45.554;10.220;2023-10-08T19:17:46;7.07;;;4.05;;
78824;SDS011;68176;45.554;10.220;2023-10-08T19:20:16;4.53;;;2.60;;
78824;SDS011;68176;45.554;10.220;2023-10-08T19:22:46;7.85;;;3.40;;
78824;SDS011;68176;45.554;10.220;2023-10-08T19:25:16;6.68;;;3.50;;
78824;SDS011;68176;45.554;10.220;2023-10-08T19:27:46;5.45;;;3.58;;
78824;SDS011;68176;45.554;10.220;2023-10-08T19:30:16;6.20;;;3.55;;
78824;SDS011;68176;45.554;10.220;2023-10-08T19:32:47;5.53;;;3.20;;
78824;SDS011;68176;45.554;10.220;2023-10-08T19:35:16;6.13;;;3.80;;
78824;SDS011;68176;45.554;10.220;2023-10-08T19:37:46;5.88;;;2.90;;
78824;SDS011;68176;45.554;10.220;2023-10-08T19:40:16;6.75;;;2.97;;
78824;SDS011;68176;45.554;10.220;2023-10-08T19:42:46;6.75;;;3.50;;
78824;SDS011;68176;45.554;10.220;2023-10-08T19:45:16;6.72;;;3.47;;
78824;SDS011;68176;45.554;10.220;2023-10-08T19:47:47;4.95;;;2.90;;
78824;SDS011;68176;45.554;10.220;2023-10-08T19:50:16;6.78;;;3.38;;
78824;SDS011;68176;45.554;10.220;2023-10-08T19:52:46;4.53;;;2.95;;
78824;SDS011;68176;45.554;10.220;2023-10-08T19:55:16;5.35;;;3.42;;